Time;durP1;ratioP1;P1;durP2;ratioP2;P2;SDS_P1;SDS_P2;PMS_P1;PMS_P2;Temp;Humidity;BMP_temperature;BMP_pressure;BME280_temperature;BME280_humidity;BME280_pressure;Samples;Min_cycle;Max_cycle;Signal;HPM_P1;HPM_P2
2022/06/02 00:01:26;;;;;;;7.70;6.43;;;;;;;9.40;100.00;102022.97;10524212;28;20434;-71
2022/06/02 00:06:35;;;;;;;7.80;6.10;;;;;;;9.32;100.00;102023.78;10541934;28;20028;-71
2022/06/02 00:11:54;;;;;;;10.68;6.28;;;;;;;9.26;100.00;102029.00;10523188;28;20051;-71
2022/06/02 00:17:00;;;;;;;10.57;7.50;;;;;;;9.22;100.00;102022.22;10542672;28;20035;-71
2022/06/02 00:22:06;;;;;;;8.35;6.82;;;;;;;9.17;100.00;102033.50;10540623;28;20065;-71
2022/06/02 00:27:17;;;;;;;8.10;7.30;;;;;;;9.15;100.00;102031.97;10523700;28;20097;-71
2022/06/02 00:32:22;;;;;;;8.57;6.90;;;;;;;9.15;100.00;102031.97;10522957;28;20028;-71
2022/06/02 00:37:46;;;;;;;9.57;7.65;;;;;;;9.07;100.00;102038.19;10523370;28;20032;-71
2022/06/02 00:42:57;;;;;;;8.98;8.07;;;;;;;9.03;100.00;102034.97;10524426;28;20034;-71
2022/06/02 00:48:04;;;;;;;8.18;6.68;;;;;;;9.01;100.00;102041.53;10524539;28;20028;-71
2022/06/02 00:53:19;;;;;;;8.07;6.43;;;;;;;8.97;100.00;102032.91;10540474;28;20078;-71
2022/06/02 00:58:34;;;;;;;6.53;5.95;;;;;;;8.96;100.00;102036.59;10539844;28;20736;-71
2022/06/02 01:03:43;;;;;;;14.85;6.85;;;;;;;8.91;100.00;102035.38;10554417;28;20043;-72
2022/06/02 01:08:51;;;;;;;7.05;6.07;;;;;;;8.85;100.00;102036.84;10582492;28;20039;-71
2022/06/02 01:14:07;;;;;;;8.82;6.68;;;;;;;8.81;100.00;102038.19;10566565;28;20035;-72
2022/06/02 01:19:26;;;;;;;10.65;7.13;;;;;;;8.77;100.00;102034.94;10582715;28;20401;-71
2022/06/02 01:24:48;;;;;;;9.38;6.88;;;;;;;8.68;100.00;102054.81;10581793;28;20330;-71
2022/06/02 01:29:55;;;;;;;6.82;6.22;;;;;;;8.59;100.00;102044.94;10550547;28;20057;-71
2022/06/02 01:35:15;;;;;;;8.93;7.30;;;;;;;8.59;100.00;102055.75;10581851;28;20028;-72
2022/06/02 01:40:26;;;;;;;9.00;6.93;;;;;;;8.59;100.00;102053.88;10565195;28;20035;-71
2022/06/02 01:45:39;;;;;;;9.00;7.22;;;;;;;8.58;100.00;102062.13;10563978;28;20024;-71
2022/06/02 01:51:02;;;;;;;8.23;6.65;;;;;;;8.50;100.00;102057.53;10564752;28;20543;-71
2022/06/02 01:56:23;;;;;;;7.53;6.65;;;;;;;8.48;100.00;102051.41;10564639;28;20048;-71
2022/06/02 02:01:29;;;;;;;7.35;6.70;;;;;;;8.44;100.00;102041.94;10567140;28;20055;-72
2022/06/02 02:06:48;;;;;;;9.60;8.40;;;;;;;8.35;100.00;102043.69;10539541;28;20032;-71
2022/06/02 02:11:52;;;;;;;8.60;7.40;;;;;;;8.32;100.00;102054.78;10521865;28;20024;-71
2022/06/02 02:17:04;;;;;;;8.40;6.60;;;;;;;8.30;100.00;102054.09;10520619;28;20085;-71
2022/06/02 02:22:12;;;;;;;9.02;8.23;;;;;;;8.40;100.00;102059.47;10524381;28;20036;-71
2022/06/02 02:28:02;;;;;;;10.10;9.10;;;;;;;8.48;100.00;102059.50;10512319;28;20028;-71
2022/06/02 02:33:07;;;;;;;9.63;8.70;;;;;;;8.53;100.00;102056.38;10532466;28;20044;-71
2022/06/02 02:38:32;;;;;;;18.92;9.02;;;;;;;8.47;100.00;102063.22;10512606;28;20058;-71
2022/06/02 02:43:40;;;;;;;9.30;8.20;;;;;;;8.32;100.00;102067.44;10530286;28;20032;-71
2022/06/02 02:48:57;;;;;;;12.25;8.73;;;;;;;8.30;100.00;102064.06;10544545;28;20042;-71
2022/06/02 02:54:10;;;;;;;9.85;7.90;;;;;;;8.32;100.00;102064.72;10511741;28;20034;-71
2022/06/02 02:59:32;;;;;;;10.98;8.73;;;;;;;8.28;100.00;102064.19;10495752;28;20089;-71
2022/06/02 03:04:55;;;;;;;9.27;8.40;;;;;;;8.28;100.00;102061.50;10569515;28;20051;-71
2022/06/02 03:10:00;;;;;;;10.25;9.13;;;;;;;8.26;100.00;102068.88;10588825;28;20023;-74
2022/06/02 03:15:20;;;;;;;10.32;9.32;;;;;;;8.23;100.00;102060.25;10569850;28;20087;-71
2022/06/02 03:20:39;;;;;;;9.27;8.35;;;;;;;8.13;100.00;102061.16;10567711;28;20023;-71
2022/06/02 03:25:56;;;;;;;12.93;9.00;;;;;;;8.09;100.00;102059.78;10586074;28;20042;-71
2022/06/02 03:31:24;;;;;;;21.27;11.65;;;;;;;8.13;100.00;102066.56;10567612;28;20081;-71
2022/06/02 03:36:56;;;;;;;13.50;8.93;;;;;;;8.15;100.00;102066.44;10585455;28;20036;-71
2022/06/02 03:42:33;;;;;;;16.13;9.68;;;;;;;8.17;100.00;102069.84;10568495;28;20038;-71
2022/06/02 03:48:21;;;;;;;12.77;11.07;;;;;;;8.19;100.00;102075.91;10584699;28;20537;-71
2022/06/02 03:53:46;;;;;;;11.02;9.88;;;;;;;8.16;100.00;102084.31;10494537;28;20035;-71
2022/06/02 03:59:18;;;;;;;13.20;9.95;;;;;;;8.21;100.00;102083.88;10585024;28;20031;-71
2022/06/02 04:04:37;;;;;;;11.57;10.10;;;;;;;8.25;100.00;102090.66;10569120;28;20214;-71
2022/06/02 04:09:49;;;;;;;18.05;11.27;;;;;;;8.34;100.00;102095.97;10550125;28;20027;-71
2022/06/02 04:15:02;;;;;;;12.15;10.88;;;;;;;8.38;100.00;102107.34;10584833;28;20081;-71
2022/06/02 04:20:44;;;;;;;12.23;11.13;;;;;;;8.46;100.00;102101.19;10542425;28;20027;-71
2022/06/02 04:26:07;;;;;;;11.57;10.35;;;;;;;8.54;100.00;102102.09;10484673;28;20481;-71
2022/06/02 04:31:35;;;;;;;15.60;12.32;;;;;;;8.62;100.00;102109.44;10568310;28;20027;-71
2022/06/02 04:37:12;;;;;;;13.38;11.23;;;;;;;8.77;100.00;102128.63;10583718;28;20035;-69
2022/06/02 04:42:30;;;;;;;13.90;12.50;;;;;;;9.07;100.00;102124.66;10582337;28;20034;-70
2022/06/02 04:47:34;;;;;;;13.73;11.85;;;;;;;10.55;100.00;102129.72;10565657;28;20106;-71
2022/06/02 04:53:10;;;;;;;17.65;14.95;;;;;;;11.82;100.00;102114.63;10564721;28;20030;-71
2022/06/02 04:58:21;;;;;;;19.63;16.15;;;;;;;12.94;100.00;102124.13;10535438;28;20101;-71
2022/06/02 05:03:42;;;;;;;17.80;12.80;;;;;;;13.83;100.00;102126.97;10564154;28;20055;-72
2022/06/02 05:08:46;;;;;;;14.15;11.63;;;;;;;14.38;100.00;102136.44;10583023;28;20368;-72
2022/06/02 05:13:52;;;;;;;14.30;12.50;;;;;;;15.04;100.00;102136.28;10583561;28;20108;-73
2022/06/02 05:19:13;;;;;;;15.93;10.47;;;;;;;15.66;100.00;102126.44;10582256;28;20035;-72
2022/06/02 05:24:19;;;;;;;11.52;8.48;;;;;;;16.25;100.00;102128.63;10567135;28;20293;-72
2022/06/02 05:29:38;;;;;;;8.57;7.78;;;;;;;16.81;100.00;102137.63;10563366;28;20028;-72
2022/06/02 05:34:51;;;;;;;8.13;6.88;;;;;;;17.19;100.00;102140.56;10564294;28;20076;-73
2022/06/02 05:40:07;;;;;;;5.30;4.80;;;;;;;17.53;99.64;102144.13;10581395;28;20372;-72
2022/06/02 05:45:16;;;;;;;10.50;6.33;;;;;;;17.74;100.00;102143.88;10563782;28;20032;-73
2022/06/02 05:50:32;;;;;;;5.82;5.32;;;;;;;17.79;100.00;102143.25;10581193;28;20103;-73
2022/06/02 05:56:08;;;;;;;5.72;5.25;;;;;;;18.15;100.00;102139.13;10550548;28;20031;-72
2022/06/02 06:01:33;;;;;;;5.85;5.30;;;;;;;18.67;100.00;102148.13;10538511;28;20101;-73
2022/06/02 06:06:47;;;;;;;5.40;4.90;;;;;;;19.04;99.78;102158.22;10546720;28;20043;-73
2022/06/02 06:12:08;;;;;;;4.93;4.45;;;;;;;19.53;99.02;102158.44;10528359;28;20177;-73
2022/06/02 06:17:08;;;;;;;5.05;4.55;;;;;;;20.19;97.44;102151.34;10527321;28;20039;-73
2022/06/02 06:22:35;;;;;;;3.72;3.47;;;;;;;20.27;94.47;102148.31;10546668;28;20366;-73
2022/06/02 06:28:03;;;;;;;3.65;3.33;;;;;;;19.40;94.80;102155.78;10512783;28;20024;-73
2022/06/02 06:33:06;;;;;;;3.72;3.30;;;;;;;17.36;95.28;102162.91;10547113;28;20043;-72
2022/06/02 06:38:42;;;;;;;3.58;3.38;;;;;;;16.13;97.09;102165.81;10545738;28;20042;-72
2022/06/02 06:43:49;;;;;;;3.55;3.25;;;;;;;15.39;98.32;102163.66;10506520;28;20128;-72
2022/06/02 06:48:52;;;;;;;5.15;3.78;;;;;;;15.07;98.54;102179.56;10545751;28;20028;-72
2022/06/02 06:53:59;;;;;;;5.55;4.05;;;;;;;14.97;98.97;102197.31;10526466;28;20032;-72
2022/06/02 06:59:33;;;;;;;3.95;3.58;;;;;;;14.92;98.45;102194.31;10544484;28;20040;-72
2022/06/02 07:05:01;;;;;;;4.70;4.25;;;;;;;14.95;98.31;102196.63;10560805;28;20464;-72
2022/06/02 07:10:07;;;;;;;4.22;3.92;;;;;;;14.99;98.21;102204.22;10585189;28;20035;-72
2022/06/02 07:15:28;;;;;;;3.83;3.53;;;;;;;15.93;97.66;102195.75;10585532;28;20019;-72
2022/06/02 07:20:40;;;;;;;4.47;3.15;;;;;;;18.68;94.17;102194.53;10567411;28;20096;-72
2022/06/02 07:25:51;;;;;;;8.63;4.18;;;;;;;20.72;91.78;102204.88;10552475;28;20040;-72
2022/06/02 07:30:56;;;;;;;2.97;2.85;;;;;;;20.20;92.60;102202.56;10568793;28;20028;-72
2022/06/02 07:36:18;;;;;;;8.02;2.38;;;;;;;22.15;87.83;102202.88;10567120;28;20063;-72
2022/06/02 07:41:28;;;;;;;3.53;3.08;;;;;;;23.33;86.86;102206.81;10584249;28;20038;-73
2022/06/02 07:47:06;;;;;;;3.05;2.85;;;;;;;21.81;85.82;102219.22;10584405;28;20027;-72
2022/06/02 07:52:22;;;;;;;3.88;2.83;;;;;;;20.65;88.47;102222.31;10586762;28;20028;-73
2022/06/02 07:57:52;;;;;;;4.10;3.28;;;;;;;19.89;87.97;102228.28;10567605;28;20106;-73
2022/06/02 08:03:12;;;;;;;2.50;2.30;;;;;;;19.53;89.78;102235.38;10549446;28;20040;-73
2022/06/02 08:08:18;;;;;;;2.97;2.78;;;;;;;19.09;90.54;102228.94;10540897;28;20233;-73
2022/06/02 08:13:22;;;;;;;3.30;3.10;;;;;;;18.60;90.62;102230.44;10506560;28;20388;-72
2022/06/02 08:18:55;;;;;;;10.88;3.33;;;;;;;18.10;89.79;102233.00;10541064;28;20035;-72
2022/06/02 08:24:23;;;;;;;3.35;3.05;;;;;;;17.44;90.55;102237.47;10525245;28;20098;-72
2022/06/02 08:29:55;;;;;;;4.80;4.18;;;;;;;17.14;89.74;102239.75;10525622;28;20107;-73
2022/06/02 08:35:05;;;;;;;6.35;3.80;;;;;;;17.25;90.07;102231.97;10523140;28;20425;-72
2022/06/02 08:40:23;;;;;;;3.53;2.65;;;;;;;17.84;89.19;102242.13;10539650;28;20471;-73
2022/06/02 08:45:34;;;;;;;3.75;2.90;;;;;;;17.47;90.30;102240.84;10523466;28;20470;-72
2022/06/02 08:50:45;;;;;;;2.58;2.38;;;;;;;17.13;89.05;102246.31;10523372;28;20437;-73
2022/06/02 08:56:23;;;;;;;2.15;2.03;;;;;;;17.36;87.41;102242.31;10502755;28;20122;-72
2022/06/02 09:01:34;;;;;;;4.68;3.03;;;;;;;17.56;87.37;102242.31;10521884;28;20465;-72
2022/06/02 09:06:36;;;;;;;4.28;3.72;;;;;;;18.36;84.77;102238.38;10540736;28;20055;-73
2022/06/02 09:11:46;;;;;;;3.30;3.00;;;;;;;20.74;80.11;102250.38;10539855;28;20038;-72
2022/06/02 09:17:01;;;;;;;1.80;1.70;;;;;;;20.57;79.33;102244.66;10522563;28;20032;-72
2022/06/02 09:22:10;;;;;;;4.72;2.08;;;;;;;19.11;80.05;102240.53;10521398;28;20024;-73
2022/06/02 09:27:34;;;;;;;5.30;2.83;;;;;;;19.05;76.87;102245.03;10540098;28;20107;-72
2022/06/02 09:32:49;;;;;;;1.92;1.80;;;;;;;20.88;77.01;102249.09;10526998;28;20032;-73
2022/06/02 09:38:04;;;;;;;3.38;2.38;;;;;;;22.39;68.72;102245.06;10547911;28;20074;-73
2022/06/02 09:43:36;;;;;;;1.98;1.88;;;;;;;24.06;69.31;102251.94;10547539;28;20074;-73
2022/06/02 09:48:45;;;;;;;3.70;2.42;;;;;;;24.55;61.67;102243.72;10547370;28;20426;-73
2022/06/02 09:54:13;;;;;;;2.17;2.03;;;;;;;24.95;58.33;102230.56;10529229;28;20062;-73
2022/06/02 09:59:36;;;;;;;2.03;1.92;;;;;;;25.77;61.74;102221.00;10513584;28;20135;-69
2022/06/02 10:04:47;;;;;;;3.70;1.90;;;;;;;25.63;57.91;102219.81;10546439;28;20511;-69
2022/06/02 10:10:12;;;;;;;2.10;2.00;;;;;;;25.43;53.01;102217.69;10570878;28;20044;-68
2022/06/02 10:15:34;;;;;;;1.92;1.58;;;;;;;24.61;58.39;102208.63;10571607;28;20424;-70
2022/06/02 10:20:57;;;;;;;2.25;1.75;;;;;;;25.10;50.31;102205.75;10570667;28;20372;-69
2022/06/02 10:26:22;;;;;;;2.60;1.95;;;;;;;25.25;51.01;102205.09;10588038;28;20031;-69
2022/06/02 10:32:00;;;;;;;5.45;2.20;;;;;;;25.47;51.41;102196.69;10569719;28;20032;-69
2022/06/02 10:37:18;;;;;;;2.00;1.90;;;;;;;26.48;48.65;102190.00;10586833;28;20031;-70
2022/06/02 10:42:34;;;;;;;3.38;2.80;;;;;;;26.70;37.38;102188.97;10569569;28;20028;-70
2022/06/02 10:47:46;;;;;;;2.08;1.77;;;;;;;25.06;46.03;102185.22;10568229;28;20083;-70
2022/06/02 10:53:12;;;;;;;2.65;2.47;;;;;;;25.75;46.56;102176.88;10586605;28;20110;-69
2022/06/02 10:58:54;;;;;;;3.45;2.20;;;;;;;26.44;44.61;102180.53;10570948;28;20429;-69
2022/06/02 11:04:23;;;;;;;4.93;2.35;;;;;;;27.47;43.12;102176.78;10520581;28;20426;-69
2022/06/02 11:09:49;;;;;;;10.07;2.90;;;;;;;25.91;45.43;102176.97;10525956;28;20465;-70
2022/06/02 11:15:08;;;;;;;2.90;2.60;;;;;;;26.54;49.14;102176.97;10526914;28;20051;-71
2022/06/02 11:20:41;;;;;;;2.67;2.25;;;;;;;25.21;45.71;102179.84;10524741;28;20040;-70
2022/06/02 11:25:44;;;;;;;2.97;2.67;;;;;;;23.37;51.90;102191.38;10502629;28;20487;-69
2022/06/02 11:31:07;;;;;;;5.47;3.15;;;;;;;23.73;46.20;102185.59;10543057;28;20032;-69
2022/06/02 11:36:28;;;;;;;3.20;3.00;;;;;;;22.94;51.27;102183.72;10532570;28;20101;-70
2022/06/02 11:41:58;;;;;;;4.68;3.13;;;;;;;22.42;49.90;102179.16;10491674;28;20040;-68
2022/06/02 11:47:25;;;;;;;3.53;3.33;;;;;;;25.37;49.87;102172.47;10542722;28;20035;-68
2022/06/02 11:52:43;;;;;;;4.60;2.63;;;;;;;25.59;46.46;102169.59;10524061;28;20440;-69
2022/06/02 11:58:26;;;;;;;2.70;2.50;;;;;;;23.73;49.41;102164.28;10525713;28;20127;-70
2022/06/02 12:04:03;;;;;;;2.33;2.15;;;;;;;24.78;52.10;102155.88;10541306;28;20081;-70
2022/06/02 12:09:10;;;;;;;;;;;;;;;25.49;42.28;102142.63;10542985;28;20032;-70
2022/06/02 12:14:32;;;;;;;2.20;2.03;;;;;;;23.90;43.57;102147.66;10541446;28;19912;-69
2022/06/02 12:19:38;;;;;;;2.60;2.40;;;;;;;22.49;46.02;102148.66;10506473;28;20461;-69
2022/06/02 12:24:57;;;;;;;2.65;2.45;;;;;;;21.61;50.12;102156.19;10541169;28;20031;-70
2022/06/02 12:30:39;;;;;;;3.67;3.38;;;;;;;22.71;49.82;102140.50;10541101;28;20024;-69
2022/06/02 12:35:49;;;;;;;2.90;2.67;;;;;;;25.03;48.43;102139.47;10526096;28;20044;-69
2022/06/02 12:41:34;;;;;;;18.35;2.75;;;;;;;23.58;48.04;102136.38;10545213;28;20082;-69
2022/06/02 12:47:02;;;;;;;8.60;3.35;;;;;;;22.18;45.84;102134.28;10501332;28;20481;-69
2022/06/02 12:52:34;;;;;;;2.92;2.72;;;;;;;23.64;47.29;102122.41;10540665;28;20028;-69
2022/06/02 12:57:59;;;;;;;3.33;3.13;;;;;;;24.46;47.05;102109.59;10535791;28;20449;-68
2022/06/02 13:03:27;;;;;;;2.33;2.22;;;;;;;25.08;45.08;102112.88;10541013;28;20411;-70
2022/06/02 13:09:04;;;;;;;2.30;2.17;;;;;;;23.73;45.13;102124.75;10541960;28;20096;-69
2022/06/02 13:14:04;;;;;;;;;;;;;;;23.22;43.98;102119.28;10525576;28;20034;-69
2022/06/02 13:19:42;;;;;;;4.03;2.58;;;;;;;24.55;43.78;102109.94;10539805;28;20260;-68
2022/06/02 13:25:11;;;;;;;1.98;1.88;;;;;;;24.55;45.50;102126.56;10539323;28;20085;-69
2022/06/02 13:30:45;;;;;;;5.40;2.50;;;;;;;25.13;46.42;102124.88;10539065;28;20024;-68
2022/06/02 13:35:58;;;;;;;29.80;2.47;;;;;;;25.97;38.13;102121.25;10539690;28;20024;-68
2022/06/02 13:41:14;;;;;;;1.92;1.48;;;;;;;25.58;43.27;102115.19;10538281;28;20426;-69
2022/06/02 13:47:09;;;;;;;1.67;1.58;;;;;;;25.45;42.35;102127.59;10520636;28;20028;-70
2022/06/02 13:52:27;;;;;;;1.90;1.80;;;;;;;25.52;45.61;102119.03;10428067;28;20044;-69
2022/06/02 13:57:42;;;;;;;2.25;2.05;;;;;;;24.58;39.06;102114.97;10539574;28;20064;-67
2022/06/02 14:03:00;;;;;;;1.85;1.75;;;;;;;23.52;43.27;102112.53;10539084;28;20051;-68
2022/06/02 14:08:16;;;;;;;4.38;2.70;;;;;;;23.28;42.33;102101.69;10520742;28;20059;-68
2022/06/02 14:13:48;;;;;;;2.47;2.28;;;;;;;23.21;43.19;102101.03;10538348;28;20469;-69
2022/06/02 14:18:58;;;;;;;2.42;2.22;;;;;;;23.65;44.32;102095.56;10527068;28;20043;-69
2022/06/02 14:24:23;;;;;;;1.45;1.38;;;;;;;23.97;44.13;102078.31;10545576;28;20461;-68
2022/06/02 14:29:42;;;;;;;1.20;1.10;;;;;;;24.09;44.82;102078.97;10546671;28;20031;-69
2022/06/02 14:35:05;;;;;;;1.35;1.15;;;;;;;24.06;44.85;102074.00;10544649;28;20032;-68
2022/06/02 14:40:07;;;;;;;6.30;1.77;;;;;;;23.89;42.79;102068.50;10544817;28;20039;-68
2022/06/02 14:45:12;;;;;;;1.65;1.55;;;;;;;23.13;43.07;102071.91;10544924;28;20031;-68
2022/06/02 14:50:23;;;;;;;1.98;1.77;;;;;;;23.34;45.94;102069.44;10525751;28;20059;-69
2022/06/02 14:55:33;;;;;;;2.45;2.10;;;;;;;23.51;43.88;102067.44;10527345;28;20024;-68
2022/06/02 15:00:51;;;;;;;7.25;2.15;;;;;;;23.24;46.06;102067.38;10526250;28;20118;-69
2022/06/02 15:05:56;;;;;;;1.60;1.50;;;;;;;23.36;46.18;102056.22;10587303;28;20126;-70
2022/06/02 15:11:01;;;;;;;1.83;1.73;;;;;;;22.97;43.57;102059.78;10567731;28;20028;-69
2022/06/02 15:16:21;;;;;;;2.47;2.17;;;;;;;22.50;46.62;102056.47;10568972;28;20107;-68
2022/06/02 15:21:55;;;;;;;2.70;1.67;;;;;;;22.45;47.39;102059.16;10568149;28;20064;-68
2022/06/02 15:27:05;;;;;;;3.20;2.20;;;;;;;22.30;46.90;102051.41;10550999;28;20043;-68
2022/06/02 15:32:21;;;;;;;1.98;1.73;;;;;;;21.97;47.20;102047.47;10566133;28;20031;-68
2022/06/02 15:37:40;;;;;;;2.00;1.85;;;;;;;22.13;46.79;102040.31;10567599;28;20035;-69
2022/06/02 15:42:44;;;;;;;1.55;1.45;;;;;;;22.01;47.42;102050.56;10567211;28;20031;-68
2022/06/02 15:47:47;;;;;;;3.33;1.40;;;;;;;21.72;46.66;102046.94;10565926;28;20453;-69
2022/06/02 15:53:15;;;;;;;2.33;2.03;;;;;;;20.80;47.77;102039.34;10584065;28;20027;-69
2022/06/02 15:58:34;;;;;;;4.35;1.52;;;;;;;20.76;49.12;102052.75;10566849;28;20413;-67
2022/06/02 16:03:52;;;;;;;2.20;1.95;;;;;;;21.03;48.72;102039.38;10524510;28;20052;-68
2022/06/02 16:14:55;;;;;;;2.05;1.90;;;;;;;20.90;49.79;102031.34;10540947;28;20036;-68
2022/06/02 16:20:17;;;;;;;5.60;1.65;;;;;;;20.92;49.13;102029.19;10523575;28;20036;-68
2022/06/02 16:25:32;;;;;;;2.55;2.30;;;;;;;19.95;49.91;102021.19;10541161;28;20030;-67
2022/06/02 16:30:57;;;;;;;1.77;1.67;;;;;;;19.59;51.01;102028.38;10524231;28;20522;-68
2022/06/02 16:35:58;;;;;;;1.35;1.25;;;;;;;19.50;50.86;102024.25;10541502;28;20040;-68
2022/06/02 16:41:32;;;;;;;2.15;1.95;;;;;;;19.28;51.58;102030.22;10540035;28;20405;-68
2022/06/02 16:46:56;;;;;;;4.53;2.20;;;;;;;19.20;51.97;102025.00;10540801;28;20032;-68
2022/06/02 16:52:15;;;;;;;1.38;1.15;;;;;;;19.04;52.01;102025.59;10545644;28;20040;-67
2022/06/02 16:57:24;;;;;;;1.83;1.33;;;;;;;18.67;53.32;102020.00;10541478;28;20040;-68
2022/06/02 17:02:49;;;;;;;1.92;1.75;;;;;;;18.47;53.25;102025.63;10555079;28;20047;-68
2022/06/02 17:08:17;;;;;;;1.67;1.58;;;;;;;18.47;53.53;102028.38;10545874;28;20034;-68
2022/06/02 17:13:27;;;;;;;1.58;1.48;;;;;;;18.36;53.57;102016.22;10550610;28;20058;-69
2022/06/02 17:18:55;;;;;;;2.13;1.73;;;;;;;18.38;54.26;102020.66;10563570;28;20055;-68
2022/06/02 17:24:07;;;;;;;1.90;1.35;;;;;;;18.29;54.12;102026.41;10580815;28;20020;-69
2022/06/02 17:29:27;;;;;;;1.02;1.02;;;;;;;18.20;53.90;102015.94;10563047;28;20031;-69
2022/06/02 17:34:32;;;;;;;1.58;1.48;;;;;;;18.02;54.29;102017.50;10564617;28;20464;-68
2022/06/02 17:40:03;;;;;;;1.00;1.00;;;;;;;17.88;54.26;102030.44;10563380;28;20516;-68
2022/06/02 17:45:40;;;;;;;5.03;1.92;;;;;;;17.74;54.42;102028.81;10581001;28;20023;-68
2022/06/02 17:51:12;;;;;;;1.63;1.42;;;;;;;17.66;54.89;102023.56;10563205;28;20024;-68
2022/06/02 17:56:31;;;;;;;2.58;1.70;;;;;;;17.52;55.76;102025.53;10584806;28;20135;-68
2022/06/02 18:01:41;;;;;;;1.50;1.40;;;;;;;17.45;56.17;102030.16;10591063;28;20100;-67
2022/06/02 18:07:12;;;;;;;1.48;0.98;;;;;;;17.32;57.06;102033.78;10589528;28;20027;-69
2022/06/02 18:12:25;;;;;;;3.03;1.42;;;;;;;17.28;57.33;102038.03;10571848;28;20027;-69
2022/06/02 18:17:44;;;;;;;7.43;1.42;;;;;;;17.15;58.69;102035.31;10570476;28;20092;-68
2022/06/02 18:23:01;;;;;;;4.30;2.00;;;;;;;16.98;60.39;102039.56;10588815;28;20039;-69
2022/06/02 18:28:05;;;;;;;;;;;;;;;16.86;59.49;102031.97;10588423;28;20028;-68
2022/06/02 18:33:21;;;;;;;3.67;2.05;;;;;;;16.79;59.61;102039.34;10587938;28;20317;-68
2022/06/02 18:38:48;;;;;;;2.83;2.22;;;;;;;16.67;64.68;102033.63;10587638;28;20078;-69
2022/06/02 18:44:07;;;;;;;3.20;2.90;;;;;;;16.71;62.95;102034.06;10588731;28;20023;-69
2022/06/02 18:49:43;;;;;;;2.05;1.95;;;;;;;16.68;61.96;102032.56;10587669;28;20028;-68
2022/06/02 18:55:12;;;;;;;7.60;2.10;;;;;;;16.51;63.64;102015.75;10571526;28;20028;-69
2022/06/02 19:00:26;;;;;;;3.33;2.28;;;;;;;16.44;66.79;102019.56;10539453;28;20100;-68
2022/06/02 19:05:42;;;;;;;5.80;2.55;;;;;;;16.40;64.60;102018.25;10568620;28;20058;-67
2022/06/02 19:16:29;;;;;;;4.57;3.38;;;;;;;16.10;69.02;102020.53;10586154;28;20035;-68
2022/06/02 19:21:32;;;;;;;2.80;2.42;;;;;;;15.95;68.40;102024.31;10553585;28;20419;-69
2022/06/02 19:27:06;;;;;;;2.08;1.98;;;;;;;15.81;69.39;102028.84;10585777;28;20032;-68
2022/06/02 19:32:51;;;;;;;12.85;3.90;;;;;;;15.62;69.44;102028.75;10586576;28;20028;-68
2022/06/02 19:38:03;;;;;;;2.85;2.53;;;;;;;15.40;70.60;102037.03;10585090;28;20035;-68
2022/06/02 19:43:18;;;;;;;3.65;3.35;;;;;;;15.23;72.17;102035.69;10551904;28;20044;-69
2022/06/02 19:48:32;;;;;;;3.42;2.20;;;;;;;15.05;70.42;102042.50;10567733;28;20088;-68
2022/06/02 19:53:37;;;;;;;3.60;3.08;;;;;;;14.88;71.34;102038.41;10566303;28;20425;-68
2022/06/02 19:58:50;;;;;;;6.60;2.95;;;;;;;14.73;73.84;102046.66;10550963;28;20361;-69
2022/06/02 20:04:22;;;;;;;2.80;2.58;;;;;;;14.54;74.32;102044.59;10584768;28;20050;-68
2022/06/02 20:09:34;;;;;;;3.85;3.13;;;;;;;14.44;73.66;102036.72;10527854;28;20075;-69
2022/06/02 20:14:36;;;;;;;4.05;3.28;;;;;;;14.25;74.31;102042.81;10565788;28;20110;-67
2022/06/02 20:19:43;;;;;;;8.45;2.83;;;;;;;14.16;73.79;102045.66;10565694;28;20032;-67
2022/06/02 20:25:07;;;;;;;6.32;5.20;;;;;;;14.07;73.81;102054.16;10566534;28;20038;-69
2022/06/02 20:30:23;;;;;;;4.47;3.30;;;;;;;13.92;75.74;102062.38;10564244;28;20027;-68
2022/06/02 20:35:35;;;;;;;8.10;3.70;;;;;;;13.78;73.93;102055.06;10566216;28;20042;-68
2022/06/02 20:40:54;;;;;;;6.10;4.35;;;;;;;13.65;73.97;102062.03;10566437;28;20353;-68
2022/06/02 20:46:12;;;;;;;7.20;3.55;;;;;;;13.54;72.87;102067.13;10565835;28;20031;-67
2022/06/02 20:51:20;;;;;;;3.38;3.08;;;;;;;13.38;72.64;102058.13;10565358;28;20157;-68
2022/06/02 20:56:29;;;;;;;3.33;3.03;;;;;;;13.25;72.64;102064.22;10563261;28;20411;-69
2022/06/02 21:01:41;;;;;;;6.60;4.88;;;;;;;13.17;72.61;102066.13;10566006;28;20070;-67
2022/06/02 21:07:08;;;;;;;3.90;3.60;;;;;;;13.08;73.37;102061.81;10563529;28;20534;-69
2022/06/02 21:12:33;;;;;;;10.23;3.43;;;;;;;12.99;73.55;102061.06;10550371;28;20050;-68
2022/06/02 21:17:49;;;;;;;3.00;2.80;;;;;;;12.87;73.96;102040.78;10565800;28;20030;-69
2022/06/02 21:23:01;;;;;;;4.13;3.67;;;;;;;12.78;74.10;102049.00;10547678;28;20031;-69
2022/06/02 21:28:04;;;;;;;5.35;3.20;;;;;;;12.75;74.68;102046.66;10568889;28;20074;-68
2022/06/02 21:33:11;;;;;;;4.45;4.05;;;;;;;12.67;76.11;102052.19;10590271;28;20035;-68
2022/06/02 21:38:22;;;;;;;3.65;3.35;;;;;;;12.66;75.37;102058.63;10555953;28;20039;-68
2022/06/02 21:43:26;;;;;;;4.75;4.35;;;;;;;12.55;75.80;102050.91;10589805;28;20071;-69
2022/06/02 21:48:45;;;;;;;4.88;3.28;;;;;;;12.46;76.47;102041.13;10555544;28;20027;-68
2022/06/02 21:54:03;;;;;;;4.40;4.10;;;;;;;12.40;78.55;102037.28;10554535;28;20032;-68
2022/06/02 21:59:17;;;;;;;4.68;3.88;;;;;;;12.30;78.46;102029.38;10571854;28;20028;-68
2022/06/02 22:04:19;;;;;;;5.03;4.55;;;;;;;12.25;79.48;102037.22;10570849;28;20115;-68
2022/06/02 22:09:22;;;;;;;10.10;4.82;;;;;;;12.10;78.62;102028.16;10570502;28;20035;-68
2022/06/02 22:14:34;;;;;;;6.28;5.43;;;;;;;12.07;77.18;102039.38;10553786;28;20023;-67
2022/06/02 22:19:46;;;;;;;5.85;5.03;;;;;;;11.99;78.73;102040.25;10589041;28;20042;-68
2022/06/02 22:25:04;;;;;;;11.10;4.90;;;;;;;11.97;78.08;102036.06;10536467;28;20453;-68
2022/06/02 22:30:23;;;;;;;4.53;4.13;;;;;;;11.89;77.64;102039.66;10588204;28;20062;-68
2022/06/02 22:35:34;;;;;;;12.48;4.32;;;;;;;11.89;77.50;102033.38;10555667;28;20049;-68
2022/06/02 22:40:43;;;;;;;4.60;4.22;;;;;;;11.82;78.96;102034.06;10569516;28;20483;-69
2022/06/02 22:45:58;;;;;;;4.75;4.07;;;;;;;11.83;78.75;102041.16;10587699;28;20039;-69
2022/06/02 22:51:08;;;;;;;15.07;4.40;;;;;;;11.76;78.16;102034.78;10588499;28;20032;-69
2022/06/02 22:56:12;;;;;;;3.80;3.42;;;;;;;11.70;78.25;102032.75;10552538;28;20110;-68
2022/06/02 23:01:28;;;;;;;4.53;4.13;;;;;;;11.64;79.52;102028.88;10568097;28;20064;-67
2022/06/02 23:07:05;;;;;;;4.47;4.18;;;;;;;11.61;80.73;102031.97;10568880;28;20071;-67
2022/06/02 23:12:34;;;;;;;9.70;4.15;;;;;;;11.57;80.11;102037.91;10586290;28;20055;-67
2022/06/02 23:17:44;;;;;;;4.57;4.13;;;;;;;11.52;80.18;102033.03;10568416;28;20123;-68
2022/06/02 23:22:56;;;;;;;5.18;4.68;;;;;;;11.46;80.11;102036.44;10586500;28;20112;-68
2022/06/02 23:28:04;;;;;;;4.72;4.30;;;;;;;11.42;81.63;102037.78;10569397;28;20037;-68
2022/06/02 23:33:12;;;;;;;4.47;4.05;;;;;;;11.41;82.53;102026.09;10569203;28;20119;-68
2022/06/02 23:38:37;;;;;;;8.15;5.70;;;;;;;11.35;83.24;102024.09;10568475;28;20456;-67
2022/06/02 23:44:10;;;;;;;7.45;6.75;;;;;;;11.37;84.78;102032.91;10584963;28;20028;-67
2022/06/02 23:49:31;;;;;;;5.60;5.10;;;;;;;11.38;84.59;102020.19;10555160;28;20027;-68
2022/06/02 23:54:44;;;;;;;12.00;5.28;;;;;;;11.43;86.12;102014.25;10567864;28;20067;-68
